Time;durP1;ratioP1;P1;durP2;ratioP2;P2;SDS_P1;SDS_P2;PMS_P1;PMS_P2;Temp;Humidity;BMP_temperature;BMP_pressure;BME280_temperature;BME280_humidity;BME280_pressure;Samples;Min_cycle;Max_cycle;Signal;HPM_P1;HPM_P2
2023/12/03 00:00:19;;;;;;;36.17;20.73;;;-1.40;99.90;;;;;;2086402;28;20039;-73
2023/12/03 00:01:20;;;;;;;34.90;20.70;;;-1.40;99.90;;;;;;2075001;28;20780;-75
2023/12/03 00:02:22;;;;;;;33.45;19.38;;;-1.40;99.90;;;;;;2079307;28;20380;-75
2023/12/03 00:03:23;;;;;;;36.85;20.95;;;-1.40;99.90;;;;;;2091735;28;20039;-72
2023/12/03 00:04:24;;;;;;;35.42;20.40;;;-1.40;99.90;;;;;;2092007;28;20032;-74
2023/12/03 00:05:24;;;;;;;32.33;19.83;;;-1.30;99.90;;;;;;2094602;28;20123;-74
2023/12/03 00:06:25;;;;;;;35.67;20.40;;;-1.30;99.90;;;;;;2083590;28;20063;-74
2023/12/03 00:07:27;;;;;;;35.72;21.17;;;-1.30;99.90;;;;;;2083765;28;20029;-73
2023/12/03 00:08:28;;;;;;;37.35;22.15;;;-1.30;99.90;;;;;;2076447;28;20048;-74
2023/12/03 00:09:29;;;;;;;36.15;21.42;;;-1.30;99.90;;;;;;2079099;28;20056;-72
2023/12/03 00:10:30;;;;;;;33.10;19.27;;;-1.30;99.90;;;;;;2091064;28;20465;-73
2023/12/03 00:11:30;;;;;;;32.78;19.98;;;-1.30;99.90;;;;;;2086285;28;20037;-73
2023/12/03 00:12:31;;;;;;;35.00;21.33;;;-1.30;99.90;;;;;;2092040;28;20032;-74
2023/12/03 00:13:32;;;;;;;35.00;20.65;;;-1.30;99.90;;;;;;2089022;28;20036;-73
2023/12/03 00:14:33;;;;;;;36.17;20.42;;;-1.30;99.90;;;;;;2088507;28;20126;-73
2023/12/03 00:15:33;;;;;;;35.60;20.55;;;-1.30;99.90;;;;;;2093582;28;20082;-73
2023/12/03 00:16:34;;;;;;;34.33;20.23;;;-1.30;99.90;;;;;;2094433;28;20429;-71
2023/12/03 00:17:34;;;;;;;34.05;20.35;;;-1.30;99.90;;;;;;2091756;28;20036;-72
2023/12/03 00:18:35;;;;;;;36.28;21.10;;;-1.30;99.90;;;;;;2088979;28;20041;-71
2023/12/03 00:19:35;;;;;;;37.03;21.52;;;-1.30;99.90;;;;;;2093423;28;20036;-71
2023/12/03 00:20:36;;;;;;;36.67;20.88;;;-1.30;99.90;;;;;;2089587;28;20033;-70
2023/12/03 00:21:36;;;;;;;33.30;19.85;;;-1.30;99.90;;;;;;2094088;28;20046;-71
2023/12/03 00:22:37;;;;;;;36.85;21.60;;;-1.30;99.90;;;;;;2086844;28;20021;-71
2023/12/03 00:23:38;;;;;;;36.70;21.50;;;-1.30;99.90;;;;;;2085022;28;20491;-71
2023/12/03 00:24:38;;;;;;;36.42;21.40;;;-1.30;99.90;;;;;;2084042;28;20033;-71
2023/12/03 00:25:39;;;;;;;38.58;21.92;;;-1.30;99.90;;;;;;2087852;28;20097;-72
2023/12/03 00:26:39;;;;;;;38.28;22.25;;;-1.30;99.90;;;;;;2088215;28;20926;-72
2023/12/03 00:27:40;;;;;;;36.08;21.20;;;-1.30;99.90;;;;;;2090756;28;20607;-71
2023/12/03 00:28:41;;;;;;;34.13;20.73;;;-1.30;99.90;;;;;;2091639;28;20029;-71
2023/12/03 00:29:41;;;;;;;36.55;21.27;;;-1.30;99.90;;;;;;2086292;28;20630;-72
2023/12/03 00:30:42;;;;;;;38.50;22.80;;;-1.20;99.90;;;;;;2091029;28;20411;-71
2023/12/03 00:31:43;;;;;;;34.88;20.65;;;-1.20;99.90;;;;;;2093275;28;20024;-74
2023/12/03 00:32:43;;;;;;;37.35;21.23;;;-1.30;99.90;;;;;;2085149;28;20086;-74
2023/12/03 00:33:44;;;;;;;34.90;21.25;;;-1.30;99.90;;;;;;2093182;28;20031;-74
2023/12/03 00:34:44;;;;;;;35.25;21.20;;;-1.30;99.90;;;;;;2094000;28;20028;-73
2023/12/03 00:35:45;;;;;;;36.15;21.13;;;-1.30;99.90;;;;;;2080938;28;20025;-75
2023/12/03 00:36:45;;;;;;;36.58;21.33;;;-1.30;99.90;;;;;;2077918;28;20053;-75
2023/12/03 00:37:46;;;;;;;36.60;21.48;;;-1.30;99.90;;;;;;2091014;28;20056;-71
2023/12/03 00:38:46;;;;;;;38.22;21.70;;;-1.30;99.90;;;;;;2090101;28;20036;-71
2023/12/03 00:39:47;;;;;;;35.03;21.70;;;-1.30;99.90;;;;;;2084678;28;20032;-71
2023/12/03 00:40:48;;;;;;;36.67;21.33;;;-1.30;99.90;;;;;;2090591;28;20417;-72
2023/12/03 00:41:48;;;;;;;36.83;21.58;;;-1.30;99.90;;;;;;2089966;28;20023;-70
2023/12/03 00:42:49;;;;;;;36.42;20.73;;;-1.30;99.90;;;;;;2088285;28;20577;-72
2023/12/03 00:43:49;;;;;;;37.92;22.23;;;-1.30;99.90;;;;;;2094117;28;20059;-71
2023/12/03 00:44:50;;;;;;;38.58;21.95;;;-1.30;99.90;;;;;;2094571;28;20067;-71
2023/12/03 00:45:51;;;;;;;38.30;21.48;;;-1.30;99.90;;;;;;2097369;28;20031;-70
2023/12/03 00:46:52;;;;;;;37.10;21.75;;;-1.30;99.90;;;;;;2088419;28;20037;-71
2023/12/03 00:47:53;;;;;;;36.80;21.52;;;-1.30;99.90;;;;;;2092197;28;20391;-71
2023/12/03 00:48:53;;;;;;;37.17;21.42;;;-1.30;99.90;;;;;;2089997;28;20040;-71
2023/12/03 00:49:54;;;;;;;39.33;21.85;;;-1.30;99.90;;;;;;2089092;28;20036;-70
2023/12/03 00:50:55;;;;;;;40.47;22.77;;;-1.30;99.90;;;;;;2093056;28;20017;-71
2023/12/03 00:51:56;;;;;;;39.47;22.90;;;-1.30;99.90;;;;;;2092294;28;20667;-70
2023/12/03 00:52:56;;;;;;;40.13;23.00;;;-1.30;99.90;;;;;;2090487;28;20033;-70
2023/12/03 00:53:57;;;;;;;39.20;22.10;;;-1.30;99.90;;;;;;2091985;28;21260;-70
2023/12/03 00:54:57;;;;;;;41.30;22.80;;;-1.30;99.90;;;;;;2092733;28;20036;-70
2023/12/03 00:55:58;;;;;;;40.60;23.05;;;-1.30;99.90;;;;;;2091495;28;20027;-71
2023/12/03 00:56:58;;;;;;;40.33;22.63;;;-1.30;99.90;;;;;;2092327;28;20102;-71
2023/12/03 00:57:59;;;;;;;39.90;22.75;;;-1.30;99.90;;;;;;2091969;28;20040;-69
2023/12/03 00:58:59;;;;;;;41.40;23.80;;;-1.30;99.90;;;;;;2089164;28;20032;-73
2023/12/03 01:00:00;;;;;;;40.58;23.30;;;-1.40;99.90;;;;;;2089519;28;20037;-70
2023/12/03 01:01:00;;;;;;;38.78;22.55;;;-1.30;99.90;;;;;;2092938;28;20031;-70
2023/12/03 01:02:01;;;;;;;38.38;21.63;;;-1.40;99.90;;;;;;2089345;28;20035;-70
2023/12/03 01:03:02;;;;;;;40.78;23.02;;;-1.40;99.90;;;;;;2088440;28;20036;-71
2023/12/03 01:04:02;;;;;;;42.00;23.08;;;-1.40;99.90;;;;;;2093040;28;20074;-72
2023/12/03 01:05:03;;;;;;;40.65;22.98;;;-1.40;99.90;;;;;;2088583;28;20047;-71
2023/12/03 01:06:04;;;;;;;40.05;22.88;;;-1.40;99.90;;;;;;2080315;28;20139;-71
2023/12/03 01:07:04;;;;;;;38.83;22.25;;;-1.50;99.90;;;;;;2090345;28;20468;-71
2023/12/03 01:08:05;;;;;;;41.92;23.45;;;-1.50;99.90;;;;;;2092899;28;20497;-70
2023/12/03 01:09:08;;;;;;;43.05;23.80;;;-1.50;99.90;;;;;;2089714;28;20320;-71
2023/12/03 01:10:08;;;;;;;41.72;23.63;;;-1.60;99.90;;;;;;2088997;28;20032;-71
2023/12/03 01:11:09;;;;;;;42.63;23.95;;;-1.60;99.90;;;;;;2091866;28;20403;-70
2023/12/03 01:12:10;;;;;;;44.10;24.52;;;-1.60;99.90;;;;;;2088617;28;20025;-72
2023/12/03 01:13:11;;;;;;;43.25;24.08;;;-1.60;99.90;;;;;;2090683;28;20461;-71
2023/12/03 01:14:11;;;;;;;43.38;25.02;;;-1.60;99.90;;;;;;2093043;28;20104;-70
2023/12/03 01:15:12;;;;;;;42.53;24.45;;;-1.50;99.90;;;;;;2089761;28;20522;-70
2023/12/03 01:16:17;;;;;;;44.42;24.55;;;-1.50;99.90;;;;;;2088545;28;20028;-70
2023/12/03 01:17:17;;;;;;;45.53;24.90;;;-1.50;99.90;;;;;;2092484;28;20048;-70
2023/12/03 01:18:18;;;;;;;44.30;24.80;;;-1.50;99.90;;;;;;2089068;28;20024;-69
2023/12/03 01:19:18;;;;;;;41.97;23.92;;;-1.50;99.90;;;;;;2082206;28;20434;-70
2023/12/03 01:20:19;;;;;;;42.10;23.05;;;-1.50;99.90;;;;;;2081386;28;20555;-70
2023/12/03 01:21:19;;;;;;;44.35;23.60;;;-1.60;99.90;;;;;;2088832;28;20116;-70
2023/12/03 01:22:20;;;;;;;43.88;23.55;;;-1.60;99.90;;;;;;2089865;28;20037;-70
2023/12/03 01:23:20;;;;;;;45.97;24.08;;;-1.60;99.90;;;;;;2092286;28;20020;-70
2023/12/03 01:24:21;;;;;;;43.70;23.35;;;-1.60;99.90;;;;;;2086336;28;20688;-70
2023/12/03 01:25:22;;;;;;;45.38;24.02;;;-1.60;99.90;;;;;;2084299;28;20076;-69
2023/12/03 01:26:22;;;;;;;43.20;23.38;;;-1.60;99.90;;;;;;2096678;28;20061;-70
2023/12/03 01:27:23;;;;;;;45.13;24.83;;;-1.60;99.90;;;;;;2096030;28;20022;-70
2023/12/03 01:28:23;;;;;;;42.92;23.67;;;-1.60;99.90;;;;;;2094649;28;20030;-71
2023/12/03 01:29:24;;;;;;;49.40;25.58;;;-1.60;99.90;;;;;;2092986;28;20052;-69
2023/12/03 01:30:25;;;;;;;45.40;24.42;;;-1.60;99.90;;;;;;2102922;28;20504;-71
2023/12/03 01:31:25;;;;;;;47.03;25.33;;;-1.60;99.90;;;;;;2101895;28;20019;-71
2023/12/03 01:32:26;;;;;;;50.22;25.48;;;-1.60;99.90;;;;;;2088290;28;20059;-70
2023/12/03 01:33:27;;;;;;;46.00;24.85;;;-1.60;99.90;;;;;;2086855;28;20028;-70
2023/12/03 01:34:27;;;;;;;45.03;25.13;;;-1.60;99.90;;;;;;2096678;28;20493;-70
2023/12/03 01:35:28;;;;;;;46.13;24.52;;;-1.60;99.90;;;;;;2091895;28;20040;-70
2023/12/03 01:36:28;;;;;;;46.03;25.27;;;-1.70;99.90;;;;;;2087381;28;20053;-71
2023/12/03 01:37:29;;;;;;;46.80;25.67;;;-1.70;99.90;;;;;;2096818;28;20035;-71
2023/12/03 01:38:30;;;;;;;42.78;23.83;;;-1.70;99.90;;;;;;2093833;28;20032;-70
2023/12/03 01:39:30;;;;;;;47.40;24.73;;;-1.60;99.90;;;;;;2075469;28;20033;-70
2023/12/03 01:40:31;;;;;;;46.67;25.30;;;-1.60;99.90;;;;;;2084902;28;20052;-70
2023/12/03 01:41:31;;;;;;;48.20;25.77;;;-1.70;99.90;;;;;;2083090;28;20079;-70
2023/12/03 01:42:33;;;;;;;47.05;24.75;;;-1.60;99.90;;;;;;2081669;28;20037;-70
2023/12/03 01:43:49;;;;;;;45.42;24.77;;;-1.60;99.90;;;;;;2072638;28;20103;-70
2023/12/03 01:44:50;;;;;;;47.55;24.90;;;-1.60;99.90;;;;;;2092423;28;20128;-71
2023/12/03 01:45:50;;;;;;;45.55;24.58;;;-1.60;99.90;;;;;;2094241;28;20405;-71
2023/12/03 01:46:51;;;;;;;46.95;24.58;;;-1.60;99.90;;;;;;2088827;28;20387;-71
2023/12/03 01:47:52;;;;;;;48.97;26.00;;;-1.50;99.90;;;;;;2090394;28;20260;-70
2023/12/03 01:48:53;;;;;;;49.33;25.23;;;-1.50;99.90;;;;;;2078132;28;20060;-71
2023/12/03 01:49:54;;;;;;;47.00;25.00;;;-1.50;99.90;;;;;;2090892;28;20071;-72
2023/12/03 01:50:56;;;;;;;47.17;25.30;;;-1.50;99.90;;;;;;2094009;28;20477;-70
2023/12/03 01:51:57;;;;;;;49.72;26.05;;;-1.50;99.90;;;;;;2091259;28;20023;-70
2023/12/03 01:52:58;;;;;;;46.85;25.58;;;-1.50;99.90;;;;;;2089002;28;20435;-71
2023/12/03 01:53:59;;;;;;;48.03;25.48;;;-1.60;99.90;;;;;;2094384;28;20020;-71
2023/12/03 01:55:01;;;;;;;49.60;26.02;;;-1.50;99.90;;;;;;2086914;28;20059;-70
2023/12/03 01:56:02;;;;;;;47.63;24.98;;;-1.60;99.90;;;;;;2091420;28;20115;-71
2023/12/03 01:57:03;;;;;;;45.92;24.60;;;-1.60;99.90;;;;;;2090378;28;20047;-71
2023/12/03 01:58:04;;;;;;;49.65;26.23;;;-1.60;99.90;;;;;;2094086;28;20024;-71
2023/12/03 01:59:05;;;;;;;46.08;24.77;;;-1.60;99.90;;;;;;2086148;28;20586;-71
2023/12/03 02:00:06;;;;;;;48.38;26.52;;;-1.60;99.90;;;;;;2090403;28;20020;-70
2023/12/03 02:01:13;;;;;;;47.03;25.02;;;-1.60;99.90;;;;;;2084309;28;20024;-70
2023/12/03 02:02:13;;;;;;;49.25;26.00;;;-1.60;99.90;;;;;;2091277;28;20491;-71
2023/12/03 02:03:14;;;;;;;47.47;24.73;;;-1.50;99.90;;;;;;2088105;28;20025;-71
2023/12/03 02:04:14;;;;;;;48.10;25.95;;;-1.50;99.90;;;;;;2087675;28;20021;-70
2023/12/03 02:05:15;;;;;;;46.90;25.08;;;-1.60;99.90;;;;;;2091643;28;20043;-70
2023/12/03 02:06:16;;;;;;;47.88;25.30;;;-1.50;99.90;;;;;;2093121;28;20463;-70
2023/12/03 02:07:16;;;;;;;47.72;25.30;;;-1.50;99.90;;;;;;2085152;28;20661;-70
2023/12/03 02:08:17;;;;;;;47.72;25.48;;;-1.50;99.90;;;;;;2091684;28;20051;-70
2023/12/03 02:09:19;;;;;;;51.38;25.92;;;-1.50;99.90;;;;;;2088667;28;20036;-75
2023/12/03 02:10:19;;;;;;;45.63;25.08;;;-1.50;99.90;;;;;;2088925;28;20236;-73
2023/12/03 02:11:20;;;;;;;45.08;24.50;;;-1.40;99.90;;;;;;2090663;28;20112;-78
2023/12/03 02:12:20;;;;;;;45.40;24.50;;;-1.50;99.90;;;;;;2089827;28;20047;-73
2023/12/03 02:13:23;;;;;;;46.33;25.30;;;-1.50;99.90;;;;;;2090656;28;20034;-72
2023/12/03 02:14:24;;;;;;;45.25;24.35;;;-1.50;99.90;;;;;;2087268;28;20127;-72
2023/12/03 02:15:24;;;;;;;46.35;25.05;;;-1.40;99.90;;;;;;2091513;28;20115;-72
2023/12/03 02:16:25;;;;;;;46.70;25.10;;;-1.40;99.90;;;;;;2090758;28;20032;-72
2023/12/03 02:17:25;;;;;;;46.47;24.35;;;-1.40;99.90;;;;;;2083522;28;20483;-71
2023/12/03 02:18:27;;;;;;;45.17;24.38;;;-1.40;99.90;;;;;;2092724;28;20035;-72
2023/12/03 02:19:27;;;;;;;45.00;24.50;;;-1.40;99.90;;;;;;2089798;28;20131;-72
2023/12/03 02:20:28;;;;;;;47.50;25.40;;;-1.40;99.90;;;;;;2090791;28;20414;-72
2023/12/03 02:21:31;;;;;;;46.05;24.63;;;-1.40;99.90;;;;;;2078055;28;20518;-72
2023/12/03 02:22:32;;;;;;;46.35;24.67;;;-1.40;99.90;;;;;;2087754;28;20032;-73
2023/12/03 02:23:32;;;;;;;44.35;23.98;;;-1.40;99.90;;;;;;2083905;28;20467;-72
2023/12/03 02:24:33;;;;;;;46.75;25.20;;;-1.40;99.90;;;;;;2089826;28;20043;-73
2023/12/03 02:25:33;;;;;;;47.42;24.90;;;-1.30;99.90;;;;;;2083071;28;20024;-71
2023/12/03 02:26:34;;;;;;;48.58;25.50;;;-1.30;99.90;;;;;;2085913;28;20032;-73
2023/12/03 02:27:35;;;;;;;46.80;25.58;;;-1.30;99.90;;;;;;2085549;28;20103;-72
2023/12/03 02:28:35;;;;;;;47.05;25.00;;;-1.30;99.90;;;;;;2086403;28;20036;-72
2023/12/03 02:29:36;;;;;;;45.45;25.30;;;-1.30;99.90;;;;;;2085904;28;20587;-72
2023/12/03 02:30:36;;;;;;;46.60;24.58;;;-1.30;99.90;;;;;;2088476;28;20487;-72
2023/12/03 02:31:37;;;;;;;49.60;25.85;;;-1.30;99.90;;;;;;2088069;28;20037;-73
2023/12/03 02:32:37;;;;;;;46.45;25.00;;;-1.30;99.90;;;;;;2086779;28;20038;-71
2023/12/03 02:33:38;;;;;;;45.17;24.35;;;-1.30;99.90;;;;;;2085006;28;20029;-72
2023/12/03 02:34:39;;;;;;;46.88;24.98;;;-1.30;99.90;;;;;;2086119;28;20446;-72
2023/12/03 02:35:39;;;;;;;46.72;24.67;;;-1.30;99.90;;;;;;2086061;28;20116;-72
2023/12/03 02:36:40;;;;;;;45.08;24.80;;;-1.30;99.90;;;;;;2075268;28;20037;-72
2023/12/03 02:37:40;;;;;;;45.60;24.38;;;-1.30;99.90;;;;;;2085650;28;20036;-71
2023/12/03 02:38:41;;;;;;;47.10;25.15;;;-1.30;99.90;;;;;;2095321;28;20040;-73
2023/12/03 02:39:41;;;;;;;48.60;25.50;;;-1.30;99.90;;;;;;2085047;28;20025;-72
2023/12/03 02:40:42;;;;;;;46.80;24.60;;;-1.30;99.90;;;;;;2085373;28;20036;-72
2023/12/03 02:41:43;;;;;;;47.40;25.50;;;-1.30;99.90;;;;;;2086247;28;20501;-72
2023/12/03 02:42:43;;;;;;;48.13;25.15;;;-1.30;99.90;;;;;;2092395;28;20107;-72
2023/12/03 02:43:44;;;;;;;48.60;25.35;;;-1.30;99.90;;;;;;2086282;28;20415;-72
2023/12/03 02:44:44;;;;;;;48.05;25.50;;;-1.30;99.90;;;;;;2086953;28;20120;-72
2023/12/03 02:45:45;;;;;;;51.75;26.65;;;-1.30;99.90;;;;;;2091072;28;20133;-72
2023/12/03 02:46:45;;;;;;;46.92;25.17;;;-1.30;99.90;;;;;;2087275;28;20056;-72
2023/12/03 02:47:46;;;;;;;47.72;25.30;;;-1.30;99.90;;;;;;2090550;28;20032;-73
2023/12/03 02:48:46;;;;;;;46.92;25.60;;;-1.30;99.90;;;;;;2084173;28;20029;-72
2023/12/03 02:49:47;;;;;;;46.58;24.98;;;-1.30;99.90;;;;;;2091075;28;20370;-72
2023/12/03 02:50:47;;;;;;;47.22;25.20;;;-1.30;99.90;;;;;;2082977;28;20057;-72
2023/12/03 02:51:48;;;;;;;48.00;25.27;;;-1.40;99.90;;;;;;2088046;28;24885;-71
2023/12/03 02:52:48;;;;;;;48.78;25.25;;;-1.40;99.90;;;;;;2087922;28;20032;-72
2023/12/03 02:53:49;;;;;;;49.05;25.10;;;-1.40;99.90;;;;;;2086590;28;20183;-72
2023/12/03 02:54:50;;;;;;;48.90;24.92;;;-1.40;99.90;;;;;;2093435;28;20032;-71
2023/12/03 02:55:50;;;;;;;49.83;26.02;;;-1.40;99.90;;;;;;2098004;28;20028;-72
2023/12/03 02:56:50;;;;;;;49.90;25.27;;;-1.40;99.90;;;;;;2095482;28;20024;-72
2023/12/03 02:57:51;;;;;;;47.78;24.83;;;-1.40;99.90;;;;;;2093501;28;20029;-72
2023/12/03 02:58:52;;;;;;;46.33;25.02;;;-1.40;99.90;;;;;;2093934;28;20037;-72
2023/12/03 02:59:52;;;;;;;49.20;25.60;;;-1.40;99.90;;;;;;2094461;28;20025;-72
2023/12/03 03:00:53;;;;;;;50.05;25.73;;;-1.40;99.90;;;;;;2089617;28;20086;-72
2023/12/03 03:01:53;;;;;;;49.35;25.45;;;-1.40;99.90;;;;;;2084691;28;20080;-72
2023/12/03 03:02:54;;;;;;;48.95;25.38;;;-1.40;99.90;;;;;;2086687;28;20058;-72
2023/12/03 03:03:55;;;;;;;48.75;25.63;;;-1.40;99.90;;;;;;2084960;28;20067;-72
2023/12/03 03:04:55;;;;;;;46.13;25.38;;;-1.40;99.90;;;;;;2093891;28;20036;-72
2023/12/03 03:05:56;;;;;;;48.85;25.70;;;-1.40;99.90;;;;;;2092734;28;20028;-73
2023/12/03 03:06:56;;;;;;;46.97;25.00;;;-1.30;99.90;;;;;;2089413;28;20033;-72
2023/12/03 03:07:57;;;;;;;49.20;25.45;;;-1.30;99.90;;;;;;2091728;28;20471;-73
2023/12/03 03:08:57;;;;;;;46.83;25.35;;;-1.30;99.90;;;;;;2090615;28;20038;-72
2023/12/03 03:09:58;;;;;;;46.20;24.67;;;-1.30;99.90;;;;;;2084908;28;20040;-72
2023/12/03 03:10:59;;;;;;;45.55;24.33;;;-1.30;99.90;;;;;;2091780;28;20044;-73
2023/12/03 03:11:59;;;;;;;43.58;23.90;;;-1.30;99.90;;;;;;2083577;28;20115;-73
2023/12/03 03:13:00;;;;;;;47.00;25.00;;;-1.30;99.90;;;;;;2083905;28;20025;-73
2023/12/03 03:14:01;;;;;;;45.83;24.77;;;-1.30;99.90;;;;;;2091961;28;20394;-72
2023/12/03 03:15:01;;;;;;;49.45;25.95;;;-1.30;99.90;;;;;;2092641;28;20051;-71
2023/12/03 03:16:02;;;;;;;47.40;25.02;;;-1.30;99.90;;;;;;2084828;28;20040;-72
2023/12/03 03:17:03;;;;;;;47.97;24.77;;;-1.30;99.90;;;;;;2091772;28;20326;-72
2023/12/03 03:18:03;;;;;;;48.97;24.98;;;-1.30;99.90;;;;;;2091125;28;20020;-72
2023/12/03 03:19:05;;;;;;;47.10;25.15;;;-1.30;99.90;;;;;;2085366;28;20040;-72
2023/12/03 03:20:06;;;;;;;44.30;24.70;;;-1.30;99.90;;;;;;2091045;28;20423;-72
2023/12/03 03:21:07;;;;;;;45.92;25.13;;;-1.20;99.90;;;;;;2092727;28;20073;-72
2023/12/03 03:22:11;;;;;;;46.22;25.25;;;-1.20;99.90;;;;;;2085768;28;20082;-72
2023/12/03 03:23:11;;;;;;;44.92;24.67;;;-1.20;99.90;;;;;;2080899;28;20435;-72
2023/12/03 03:24:12;;;;;;;44.50;24.48;;;-1.30;99.90;;;;;;2092227;28;20031;-72
2023/12/03 03:25:13;;;;;;;44.72;24.30;;;-1.30;99.90;;;;;;2085467;28;20360;-72
2023/12/03 03:26:13;;;;;;;46.13;25.65;;;-1.20;99.90;;;;;;2087696;28;20033;-72
2023/12/03 03:27:14;;;;;;;46.75;24.95;;;-1.30;99.90;;;;;;2088581;28;20086;-72
2023/12/03 03:28:14;;;;;;;46.30;25.88;;;-1.20;99.90;;;;;;2093983;28;20518;-72
2023/12/03 03:29:15;;;;;;;46.75;25.27;;;-1.20;99.90;;;;;;2088123;28;20036;-72
2023/12/03 03:30:15;;;;;;;48.20;26.67;;;-1.30;99.90;;;;;;2092307;28;20028;-72
2023/12/03 03:31:16;;;;;;;46.10;25.75;;;-1.30;99.90;;;;;;2089943;28;20035;-72
2023/12/03 03:32:16;;;;;;;46.00;25.38;;;-1.30;99.90;;;;;;2084473;28;20029;-72
2023/12/03 03:33:17;;;;;;;48.25;25.83;;;-1.20;99.90;;;;;;2087885;28;20081;-72
2023/12/03 03:34:17;;;;;;;46.42;24.98;;;-1.30;99.90;;;;;;2091542;28;20015;-72
2023/12/03 03:35:18;;;;;;;46.10;25.02;;;-1.20;99.90;;;;;;2088086;28;20091;-72
2023/12/03 03:36:18;;;;;;;45.05;25.27;;;-1.20;99.90;;;;;;2087724;28;20538;-71
2023/12/03 03:37:19;;;;;;;48.30;26.58;;;-1.20;99.90;;;;;;2092251;28;20437;-71
2023/12/03 03:38:19;;;;;;;43.58;24.67;;;-1.20;99.90;;;;;;2084403;28;20846;-72
2023/12/03 03:39:20;;;;;;;44.80;24.60;;;-1.20;99.90;;;;;;2084967;28;20041;-71
2023/12/03 03:40:21;;;;;;;45.78;25.02;;;-1.20;99.90;;;;;;2092547;28;20258;-71
2023/12/03 03:41:21;;;;;;;47.63;26.08;;;-1.20;99.90;;;;;;2089764;28;20070;-71
2023/12/03 03:42:22;;;;;;;44.55;24.73;;;-1.20;99.90;;;;;;2086499;28;20032;-71
2023/12/03 03:43:22;;;;;;;44.78;25.30;;;-1.20;99.90;;;;;;2092461;28;20040;-72
2023/12/03 03:44:23;;;;;;;44.75;25.02;;;-1.20;99.90;;;;;;2087361;28;20048;-72
2023/12/03 03:45:23;;;;;;;44.88;25.20;;;-1.10;99.90;;;;;;2088482;28;20112;-72
2023/12/03 03:46:24;;;;;;;48.33;25.55;;;-1.20;99.90;;;;;;2092693;28;20033;-72
2023/12/03 03:47:24;;;;;;;47.53;26.15;;;-1.20;99.90;;;;;;2090566;28;20020;-72
2023/12/03 03:48:25;;;;;;;46.20;25.23;;;-1.10;99.90;;;;;;2085691;28;20046;-72
2023/12/03 03:49:26;;;;;;;45.08;25.08;;;-1.10;99.90;;;;;;2086969;28;20064;-72
2023/12/03 03:50:26;;;;;;;45.10;25.27;;;-1.10;99.90;;;;;;2086812;28;20039;-72
2023/12/03 03:51:27;;;;;;;43.47;24.50;;;-1.10;99.90;;;;;;2089639;28;20057;-71
2023/12/03 03:52:27;;;;;;;47.22;25.52;;;-1.00;99.90;;;;;;2088998;28;20021;-71
2023/12/03 03:53:28;;;;;;;45.45;25.00;;;-1.00;99.90;;;;;;2091554;28;20075;-71
2023/12/03 03:54:28;;;;;;;44.78;24.30;;;-1.00;99.90;;;;;;2090977;28;20580;-73
2023/12/03 03:55:29;;;;;;;44.55;24.88;;;-1.00;99.90;;;;;;2084152;28;20024;-71
2023/12/03 03:56:29;;;;;;;45.92;25.27;;;-1.00;99.90;;;;;;2083376;28;20040;-72
2023/12/03 03:57:30;;;;;;;44.53;25.17;;;-1.00;99.90;;;;;;2093818;28;20250;-73
2023/12/03 03:58:30;;;;;;;46.83;26.23;;;-1.00;99.90;;;;;;2084461;28;20032;-72
2023/12/03 03:59:32;;;;;;;45.42;25.15;;;-1.00;99.90;;;;;;2084340;28;20041;-72
2023/12/03 04:00:32;;;;;;;45.25;25.25;;;-1.00;99.90;;;;;;2091831;28;20032;-71
2023/12/03 04:01:33;;;;;;;43.38;24.85;;;-0.90;99.90;;;;;;2087483;28;20063;-71
2023/12/03 04:02:33;;;;;;;44.25;25.20;;;-1.00;99.90;;;;;;2087554;28;20073;-71
2023/12/03 04:03:34;;;;;;;42.92;24.30;;;-1.00;99.90;;;;;;2092492;28;20046;-72
2023/12/03 04:04:34;;;;;;;45.83;24.65;;;-1.00;99.90;;;;;;2091290;28;20028;-72
2023/12/03 04:05:35;;;;;;;43.42;24.45;;;-1.00;99.90;;;;;;2090604;28;20032;-71
2023/12/03 04:06:39;;;;;;;43.47;24.35;;;-1.00;99.90;;;;;;2091497;28;20080;-71
2023/12/03 04:07:40;;;;;;;43.88;23.80;;;-0.90;99.90;;;;;;2083080;28;20027;-71
2023/12/03 04:08:40;;;;;;;44.50;23.98;;;-1.00;99.90;;;;;;2083197;28;20040;-71
2023/12/03 04:09:41;;;;;;;44.35;24.80;;;-0.90;99.90;;;;;;2091772;28;20165;-71
2023/12/03 04:10:41;;;;;;;44.10;24.45;;;-0.90;99.90;;;;;;2086485;28;20044;-72
2023/12/03 04:11:43;;;;;;;43.38;24.77;;;-0.90;99.90;;;;;;2089565;28;20029;-72
2023/12/03 04:12:44;;;;;;;45.63;24.83;;;-0.90;99.90;;;;;;2091245;28;20028;-72
2023/12/03 04:13:45;;;;;;;44.85;25.05;;;-0.90;99.90;;;;;;2086597;28;20121;-72
2023/12/03 04:14:45;;;;;;;44.03;24.58;;;-0.90;99.90;;;;;;2088166;28;20100;-72
2023/12/03 04:15:46;;;;;;;44.10;24.60;;;-0.90;99.90;;;;;;2087130;28;20029;-72
2023/12/03 04:16:46;;;;;;;44.97;25.08;;;-0.90;99.90;;;;;;2091829;28;20359;-72
2023/12/03 04:17:47;;;;;;;43.17;24.13;;;-0.90;99.90;;;;;;2086928;28;20029;-72
2023/12/03 04:18:48;;;;;;;44.85;24.30;;;-0.90;99.90;;;;;;2087356;28;20103;-71
2023/12/03 04:19:48;;;;;;;41.92;23.10;;;-0.90;99.90;;;;;;2086614;28;20029;-72
2023/12/03 04:20:49;;;;;;;43.40;24.20;;;-0.90;99.90;;;;;;2091909;28;20035;-72
2023/12/03 04:21:50;;;;;;;42.70;24.50;;;-0.90;99.90;;;;;;2083791;28;20021;-72
2023/12/03 04:22:50;;;;;;;44.95;24.88;;;-0.90;99.90;;;;;;2083682;28;20033;-72
2023/12/03 04:23:51;;;;;;;44.95;25.13;;;-0.90;99.90;;;;;;2086168;28;20064;-72
2023/12/03 04:24:51;;;;;;;44.78;24.67;;;-0.90;99.90;;;;;;2088511;28;20035;-72
2023/12/03 04:25:52;;;;;;;44.63;24.83;;;-0.90;99.90;;;;;;2083122;28;20163;-71
2023/12/03 04:26:52;;;;;;;46.15;24.90;;;-0.90;99.90;;;;;;2092001;28;20040;-72
2023/12/03 04:27:53;;;;;;;44.95;24.92;;;-0.90;99.90;;;;;;2088238;28;20040;-72
2023/12/03 04:28:53;;;;;;;42.90;24.15;;;-0.90;99.90;;;;;;2085630;28;20043;-71
2023/12/03 04:29:54;;;;;;;40.83;23.70;;;-0.90;99.90;;;;;;2091232;28;20037;-71
2023/12/03 04:30:54;;;;;;;42.35;24.33;;;-0.90;99.90;;;;;;2082776;28;20115;-69
2023/12/03 04:31:55;;;;;;;38.58;22.45;;;-0.90;99.90;;;;;;2078500;28;20102;-69
2023/12/03 04:32:55;;;;;;;42.03;23.85;;;-0.80;99.90;;;;;;2083584;28;20037;-68
2023/12/03 04:33:56;;;;;;;40.65;23.60;;;-0.80;99.90;;;;;;2083586;28;20033;-68
2023/12/03 04:34:57;;;;;;;42.47;24.05;;;-0.80;99.90;;;;;;2091886;28;20135;-68
2023/12/03 04:35:57;;;;;;;40.03;23.75;;;-0.80;99.90;;;;;;2089348;28;20492;-68
2023/12/03 04:36:59;;;;;;;42.58;24.13;;;-0.70;99.90;;;;;;2084133;28;20486;-68
2023/12/03 04:37:59;;;;;;;43.05;24.67;;;-0.70;99.90;;;;;;2091729;28;20040;-67
2023/12/03 04:39:00;;;;;;;38.38;22.77;;;-0.70;99.90;;;;;;2087098;28;20441;-68
2023/12/03 04:40:00;;;;;;;42.22;24.48;;;-0.70;99.90;;;;;;2083818;28;20109;-80
2023/12/03 04:41:01;;;;;;;41.80;24.15;;;-0.70;99.90;;;;;;2087925;28;20048;-80
2023/12/03 04:42:02;;;;;;;40.67;23.45;;;-0.70;99.90;;;;;;2075528;28;20435;-81
2023/12/03 04:43:02;;;;;;;39.35;23.42;;;-0.70;99.90;;;;;;2084171;28;20521;-81
2023/12/03 04:44:04;;;;;;;40.15;23.30;;;-0.70;99.90;;;;;;2099881;28;20137;-81
2023/12/03 04:45:05;;;;;;;39.35;22.98;;;-0.70;99.90;;;;;;2095000;28;20032;-79
2023/12/03 04:46:06;;;;;;;38.38;22.67;;;-0.70;99.90;;;;;;2090057;28;20157;-80
2023/12/03 04:47:07;;;;;;;39.17;23.67;;;-0.70;99.90;;;;;;2083460;28;20030;-80
2023/12/03 04:48:07;;;;;;;40.30;23.48;;;-0.80;99.90;;;;;;2094462;28;20053;-79
2023/12/03 04:49:08;;;;;;;39.55;23.25;;;-0.80;99.90;;;;;;2097578;28;20029;-79
2023/12/03 04:50:08;;;;;;;39.28;22.95;;;-0.80;99.90;;;;;;2102970;28;20028;-80
2023/12/03 04:51:12;;;;;;;40.65;23.58;;;-0.80;99.90;;;;;;2085447;28;20033;-79
2023/12/03 04:52:12;;;;;;;39.22;22.98;;;-0.80;99.90;;;;;;2081401;28;20043;-80
2023/12/03 04:53:13;;;;;;;37.80;22.65;;;-0.80;99.90;;;;;;2081366;28;20029;-80
2023/12/03 04:54:13;;;;;;;38.80;22.40;;;-0.80;99.90;;;;;;2088667;28;20511;-80
2023/12/03 04:55:14;;;;;;;37.47;22.73;;;-0.70;99.90;;;;;;2089559;28;20032;-80
2023/12/03 04:56:14;;;;;;;38.25;22.33;;;-0.70;99.90;;;;;;2092825;28;20035;-80
2023/12/03 04:57:15;;;;;;;41.38;23.35;;;-0.70;99.90;;;;;;2076037;28;20017;-80
2023/12/03 04:58:15;;;;;;;38.25;22.63;;;-0.70;99.90;;;;;;2077490;28;20121;-80
2023/12/03 04:59:16;;;;;;;41.35;23.40;;;-0.70;99.90;;;;;;2086903;28;20044;-80
2023/12/03 05:00:17;;;;;;;38.65;22.70;;;-0.70;99.90;;;;;;2083183;28;20150;-80
2023/12/03 05:01:18;;;;;;;39.22;23.08;;;-0.70;99.90;;;;;;2087269;28;20021;-81
2023/12/03 05:02:18;;;;;;;39.22;23.23;;;-0.70;99.90;;;;;;2087588;28;20029;-80
2023/12/03 05:03:19;;;;;;;38.10;22.90;;;-0.70;99.90;;;;;;2091841;28;20044;-80
2023/12/03 05:04:23;;;;;;;36.38;22.05;;;-0.70;99.90;;;;;;2091538;28;20024;-80
2023/12/03 05:05:24;;;;;;;38.92;23.13;;;-0.60;99.90;;;;;;2080740;28;20023;-80
2023/12/03 05:06:24;;;;;;;38.75;22.73;;;-0.70;99.90;;;;;;2092454;28;20059;-80
2023/12/03 05:07:25;;;;;;;36.65;22.15;;;-0.70;99.90;;;;;;2089221;28;20478;-80
2023/12/03 05:08:25;;;;;;;40.85;24.00;;;-0.60;99.90;;;;;;2087938;28;20575;-80